Time;durP1;ratioP1;P1;durP2;ratioP2;P2;SDS_P1;SDS_P2;PMS_P1;PMS_P2;Temp;Humidity;BMP_temperature;BMP_pressure;BME280_temperature;BME280_humidity;BME280_pressure;Samples;Min_cycle;Max_cycle;Signal;HPM_P1;HPM_P2
2022/04/20 00:00:11;;;;;;;;;;;;;;;1.85;100.00;95512.22;1019014;29;19947;-70
2022/04/20 00:00:41;;;;;;;;;;;;;;;1.89;100.00;95513.38;1020713;28;19954;-70
2022/04/20 00:01:12;;;;;;;;;;;;;;;1.95;100.00;95519.50;1014952;29;20412;-70
2022/04/20 00:01:42;;;;;;;;;;;;;;;1.94;100.00;95514.53;1014946;29;19989;-70
2022/04/20 00:02:13;;;;;;;;;;;;;;;1.92;100.00;95517.34;1015456;29;19919;-70
2022/04/20 00:02:43;;;;;;;;;;;;;;;1.87;100.00;95519.75;1019360;28;19922;-70
2022/04/20 00:03:13;;;;;;;;;;;;;;;1.85;100.00;95520.00;1030281;28;20354;-70
2022/04/20 00:03:43;;;;;;;;;;;;;;;1.81;100.00;95513.66;1023293;29;19977;-70
2022/04/20 00:04:14;;;;;;;;;;;;;;;1.80;100.00;95513.88;1022979;28;19923;-70
2022/04/20 00:04:44;;;;;;;;;;;;;;;1.77;100.00;95514.28;1023358;29;20330;-70
2022/04/20 00:05:15;;;;;;;;;;;;;;;1.74;100.00;95509.53;1022748;28;19927;-70
2022/04/20 00:05:45;;;;;;;;;;;;;;;1.72;100.00;95511.56;1030282;28;19930;-70
2022/04/20 00:06:15;;;;;;;;;;;;;;;1.70;100.00;95513.56;1035392;28;19927;-70
2022/04/20 00:06:46;;;;;;;;;;;;;;;1.67;100.00;95513.97;1026366;28;19925;-70
2022/04/20 00:07:16;;;;;;;;;;;;;;;1.65;100.00;95502.06;1020690;28;20325;-71
2022/04/20 00:07:46;;;;;;;;;;;;;;;1.62;100.00;95512.03;1019263;29;20446;-70
2022/04/20 00:08:16;;;;;;;;;;;;;;;1.60;100.00;95509.66;1019186;29;19923;-70
2022/04/20 00:08:47;;;;;;;;;;;;;;;1.61;100.00;95500.91;1021556;28;20182;-70
2022/04/20 00:09:17;;;;;;;;;;;;;;;1.59;100.00;95513.25;1026720;28;19918;-70
2022/04/20 00:09:48;;;;;;;;;;;;;;;1.59;100.00;95508.06;1023101;29;19922;-70
2022/04/20 00:10:18;;;;;;;;;;;;;;;1.56;100.00;95505.91;1023318;29;19923;-69
2022/04/20 00:10:48;;;;;;;;;;;;;;;1.53;100.00;95508.13;1021955;28;19977;-71
2022/04/20 00:11:18;;;;;;;;;;;;;;;1.16;100.00;95456.31;1026852;28;19922;-70
2022/04/20 00:11:49;;;;;;;;;;;;;;;1.48;100.00;95505.41;1031447;28;20351;-70
2022/04/20 00:12:19;;;;;;;;;;;;;;;1.51;100.00;95510.94;1018865;28;20002;-70
2022/04/20 00:12:49;;;;;;;;;;;;;;;1.49;100.00;95506.97;1023432;29;20406;-71
2022/04/20 00:13:20;;;;;;;;;;;;;;;1.55;100.00;95503.53;1022793;29;19965;-70
2022/04/20 00:13:50;;;;;;;;;;;;;;;1.52;100.00;95502.16;1023023;28;20415;-70
2022/04/20 00:14:20;;;;;;;;;;;;;;;1.48;100.00;95508.75;1031203;28;19926;-70
2022/04/20 00:14:53;;;;;;;;;;;;;;;1.49;100.00;95507.75;1031171;28;19921;-70
2022/04/20 00:15:24;;;;;;;;;;;;;;;1.47;100.00;95501.22;1026886;28;20415;-70
2022/04/20 00:15:54;;;;;;;;;;;;;;;1.46;100.00;95512.56;1023964;28;19922;-70
2022/04/20 00:16:27;;;;;;;;;;;;;;;1.43;100.00;95506.00;1023028;29;19962;-70
2022/04/20 00:16:57;;;;;;;;;;;;;;;1.44;100.00;95509.38;1015361;29;20795;-71
2022/04/20 00:17:27;;;;;;;;;;;;;;;1.42;100.00;95512.19;1018798;28;19919;-70
2022/04/20 00:17:58;;;;;;;;;;;;;;;1.39;100.00;95517.78;1026924;28;20168;-70
2022/04/20 00:18:28;;;;;;;;;;;;;;;1.37;100.00;95512.81;1027366;28;19972;-70
2022/04/20 00:18:58;;;;;;;;;;;;;;;1.35;100.00;95506.28;1022809;28;19918;-69
2022/04/20 00:19:29;;;;;;;;;;;;;;;1.33;100.00;95509.06;1026976;28;19922;-72
2022/04/20 00:19:59;;;;;;;;;;;;;;;1.32;100.00;95506.69;1023059;28;19918;-69
2022/04/20 00:20:32;;;;;;;;;;;;;;;1.29;100.00;95509.69;1023151;29;19957;-70
2022/04/20 00:21:05;;;;;;;;;;;;;;;1.28;100.00;95508.91;1026686;28;19926;-71
2022/04/20 00:21:36;;;;;;;;;;;;;;;1.27;100.00;95503.94;1023627;28;19974;-70
2022/04/20 00:22:06;;;;;;;;;;;;;;;1.24;100.00;95506.94;1023542;28;19984;-70
2022/04/20 00:22:36;;;;;;;;;;;;;;;1.22;100.00;95501.19;1025105;28;19924;-70
2022/04/20 00:23:07;;;;;;;;;;;;;;;1.25;100.00;95505.97;1018980;29;19922;-70
2022/04/20 00:23:37;;;;;;;;;;;;;;;1.22;100.00;95502.00;1022963;28;19923;-72
2022/04/20 00:24:07;;;;;;;;;;;;;;;1.25;100.00;95508.53;1028221;28;19925;-71
2022/04/20 00:24:38;;;;;;;;;;;;;;;1.24;100.00;95504.34;1028620;28;20491;-71
2022/04/20 00:25:09;;;;;;;;;;;;;;;1.27;100.00;95501.34;1029036;28;19914;-69
2022/04/20 00:25:39;;;;;;;;;;;;;;;1.33;100.00;95503.09;1020482;29;19918;-70
2022/04/20 00:26:09;;;;;;;;;;;;;;;1.30;100.00;95501.72;1020416;28;19911;-70
2022/04/20 00:26:39;;;;;;;;;;;;;;;1.28;100.00;95506.31;1020379;29;19918;-70
2022/04/20 00:27:10;;;;;;;;;;;;;;;1.29;100.00;95507.13;1023756;29;20392;-71
2022/04/20 00:27:40;;;;;;;;;;;;;;;1.23;100.00;95502.78;1030934;28;19922;-70
2022/04/20 00:28:10;;;;;;;;;;;;;;;1.22;100.00;95498.63;1027132;28;19919;-70
2022/04/20 00:28:41;;;;;;;;;;;;;;;1.20;100.00;95503.97;1026973;28;19926;-70
2022/04/20 00:29:11;;;;;;;;;;;;;;;1.16;100.00;95503.59;1027367;28;20003;-70
2022/04/20 00:29:41;;;;;;;;;;;;;;;1.14;100.00;95505.63;1031247;28;19952;-70
2022/04/20 00:30:12;;;;;;;;;;;;;;;1.13;100.00;95503.25;1034814;28;20376;-70
2022/04/20 00:30:43;;;;;;;;;;;;;;;1.13;100.00;95503.25;1035398;28;19919;-70
2022/04/20 00:31:13;;;;;;;;;;;;;;;1.11;100.00;95505.25;1019778;29;19930;-69
2022/04/20 00:31:43;;;;;;;;;;;;;;;1.09;100.00;95502.06;1018835;29;19927;-69
2022/04/20 00:32:16;;;;;;;;;;;;;;;1.09;100.00;95504.66;1019164;29;20010;-70
2022/04/20 00:32:47;;;;;;;;;;;;;;;1.07;100.00;95506.66;1020085;28;19927;-71
2022/04/20 00:33:17;;;;;;;;;;;;;;;1.06;100.00;95500.69;1031503;28;19934;-70
2022/04/20 00:33:47;;;;;;;;;;;;;;;1.12;100.00;95501.66;1027293;28;19914;-70
2022/04/20 00:34:18;;;;;;;;;;;;;;;1.09;100.00;95500.28;1018526;29;19919;-69
2022/04/20 00:34:48;;;;;;;;;;;;;;;1.11;100.00;95498.28;1019576;29;19962;-70
2022/04/20 00:35:18;;;;;;;;;;;;;;;1.15;100.00;95499.44;1014914;29;19923;-69
2022/04/20 00:35:50;;;;;;;;;;;;;;;1.12;100.00;95492.13;1019122;28;19982;-71
2022/04/20 00:36:20;;;;;;;;;;;;;;;1.20;100.00;95492.84;1018810;29;19919;-70
2022/04/20 00:36:51;;;;;;;;;;;;;;;1.20;100.00;95492.84;1018856;28;19938;-70
2022/04/20 00:37:21;;;;;;;;;;;;;;;1.21;100.00;95491.84;1026873;28;19925;-70
2022/04/20 00:37:51;;;;;;;;;;;;;;;1.20;100.00;95498.03;1023411;28;20363;-70
2022/04/20 00:38:22;;;;;;;;;;;;;;;1.25;100.00;95493.03;1026570;28;20396;-70
2022/04/20 00:38:52;;;;;;;;;;;;;;;1.25;100.00;95495.63;1019438;29;19958;-70
2022/04/20 00:39:22;;;;;;;;;;;;;;;1.27;100.00;95499.56;1018522;29;19922;-70
2022/04/20 00:39:53;;;;;;;;;;;;;;;1.26;100.00;95495.41;1019059;29;19919;-70
2022/04/20 00:40:23;;;;;;;;;;;;;;;1.28;100.00;95495.19;1019068;29;20050;-70
2022/04/20 00:40:53;;;;;;;;;;;;;;;1.28;100.00;95500.38;1019108;29;19966;-70
2022/04/20 00:41:24;;;;;;;;;;;;;;;1.29;100.00;95501.94;1014898;29;19926;-69
2022/04/20 00:41:57;;;;;;;;;;;;;;;1.28;100.00;95490.81;1015522;29;20330;-70
2022/04/20 00:42:27;;;;;;;;;;;;;;;1.30;100.00;95493.97;1014931;29;19947;-70
2022/04/20 00:42:58;;;;;;;;;;;;;;;1.29;100.00;95491.59;1016943;29;19930;-70
2022/04/20 00:43:28;;;;;;;;;;;;;;;1.24;100.00;95494.00;1023340;28;19961;-70
2022/04/20 00:43:58;;;;;;;;;;;;;;;1.25;100.00;95501.56;1022869;29;20234;-70
2022/04/20 00:44:29;;;;;;;;;;;;;;;1.25;100.00;95485.28;1018864;29;20335;-70
2022/04/20 00:44:59;;;;;;;;;;;;;;;1.20;100.00;95501.41;1018733;29;19922;-71
2022/04/20 00:45:29;;;;;;;;;;;;;;;1.16;100.00;95488.09;1015115;29;20355;-71
2022/04/20 00:46:00;;;;;;;;;;;;;;;1.11;100.00;95494.91;1015390;28;20204;-70
2022/04/20 00:46:30;;;;;;;;;;;;;;;1.08;100.00;95495.34;1025766;28;20369;-71
2022/04/20 00:47:00;;;;;;;;;;;;;;;1.04;100.00;95494.97;1018312;29;20053;-71
2022/04/20 00:47:31;;;;;;;;;;;;;;;1.03;100.00;95493.34;1015123;29;19919;-71
2022/04/20 00:48:01;;;;;;;;;;;;;;;1.04;100.00;95492.38;1022713;28;19966;-71
2022/04/20 00:48:31;;;;;;;;;;;;;;;1.08;100.00;95490.94;1019352;29;20352;-71
2022/04/20 00:49:02;;;;;;;;;;;;;;;1.09;100.00;95486.56;1014744;29;19919;-71
2022/04/20 00:49:32;;;;;;;;;;;;;;;1.11;100.00;95485.38;1014970;29;20017;-71
2022/04/20 00:50:03;;;;;;;;;;;;;;;1.12;100.00;95492.13;1015314;28;20397;-70
2022/04/20 00:50:33;;;;;;;;;;;;;;;1.13;100.00;95487.72;1022980;28;20356;-71
2022/04/20 00:51:03;;;;;;;;;;;;;;;1.09;100.00;95492.53;1026867;28;20347;-73
2022/04/20 00:51:36;;;;;;;;;;;;;;;1.08;100.00;95495.34;1028440;28;19921;-71
2022/04/20 00:52:07;;;;;;;;;;;;;;;1.05;100.00;95491.38;1024029;28;19922;-71
2022/04/20 00:52:37;;;;;;;;;;;;;;;1.02;100.00;95496.94;1023305;29;19922;-73
2022/04/20 00:53:08;;;;;;;;;;;;;;;0.99;100.00;95491.41;1023097;28;20289;-71
2022/04/20 00:53:38;;;;;;;;;;;;;;;0.98;100.00;95490.63;1026937;28;19960;-71
2022/04/20 00:54:08;;;;;;;;;;;;;;;0.95;100.00;95496.19;1027272;28;19918;-71
2022/04/20 00:54:39;;;;;;;;;;;;;;;0.92;100.00;95491.44;1022852;28;20356;-69
2022/04/20 00:55:09;;;;;;;;;;;;;;;0.92;100.00;95494.03;1022805;28;19923;-72
2022/04/20 00:55:39;;;;;;;;;;;;;;;0.92;100.00;95496.63;1022748;28;20009;-70
2022/04/20 00:56:10;;;;;;;;;;;;;;;0.89;100.00;95494.44;1022954;29;19941;-71
2022/04/20 00:56:40;;;;;;;;;;;;;;;0.86;100.00;95492.28;1026524;28;20420;-71
2022/04/20 00:57:12;;;;;;;;;;;;;;;0.82;100.00;95497.06;1026420;28;20206;-71
2022/04/20 00:57:42;;;;;;;;;;;;;;;0.80;100.00;95488.72;1022953;28;19981;-71
2022/04/20 00:58:13;;;;;;;;;;;;;;;0.79;100.00;95491.53;1023645;28;20584;-70
2022/04/20 00:58:43;;;;;;;;;;;;;;;0.76;100.00;95491.94;1022987;28;19965;-70
2022/04/20 00:59:14;;;;;;;;;;;;;;;0.75;100.00;95491.16;1022865;28;19919;-71
2022/04/20 00:59:45;;;;;;;;;;;;;;;0.73;100.00;95495.72;1027137;28;19953;-71
2022/04/20 01:00:15;;;;;;;;;;;;;;;0.75;100.00;95490.34;1026742;28;19980;-71
2022/04/20 01:00:45;;;;;;;;;;;;;;;0.78;100.00;95484.78;1021810;28;20567;-71
2022/04/20 01:01:19;;;;;;;;;;;;;;;0.85;100.00;95488.91;1026528;28;20726;-70
2022/04/20 01:01:49;;;;;;;;;;;;;;;0.92;100.00;95488.88;1023194;28;19918;-71
2022/04/20 01:02:21;;;;;;;;;;;;;;;0.95;100.00;95485.88;1023518;28;19917;-70
2022/04/20 01:02:51;;;;;;;;;;;;;;;0.94;100.00;95486.88;1027016;28;19933;-71
2022/04/20 01:03:21;;;;;;;;;;;;;;;0.97;100.00;95486.44;1027106;28;19914;-70
2022/04/20 01:03:52;;;;;;;;;;;;;;;0.97;100.00;95489.03;1024389;28;20416;-71
2022/04/20 01:04:22;;;;;;;;;;;;;;;1.01;100.00;95497.97;1026863;28;19927;-71
2022/04/20 01:04:52;;;;;;;;;;;;;;;1.00;100.00;95488.59;1022893;28;20424;-70
2022/04/20 01:05:23;;;;;;;;;;;;;;;1.03;100.00;95488.19;1019073;29;19915;-71
2022/04/20 01:05:56;;;;;;;;;;;;;;;1.04;100.00;95489.78;1023405;28;20659;-70
2022/04/20 01:06:26;;;;;;;;;;;;;;;1.04;100.00;95494.16;1027554;28;19925;-71
2022/04/20 01:07:00;;;;;;;;;;;;;;;1.06;100.00;95492.94;1026724;28;19921;-71
2022/04/20 01:07:34;;;;;;;;;;;;;;;1.05;100.00;95495.75;1023219;28;19944;-71
2022/04/20 01:08:04;;;;;;;;;;;;;;;1.05;100.00;95488.78;1018950;29;19919;-70
2022/04/20 01:08:34;;;;;;;;;;;;;;;1.04;100.00;95494.97;1019966;29;19915;-71
2022/04/20 01:09:05;;;;;;;;;;;;;;;1.03;100.00;95477.84;1021861;28;19926;-70
2022/04/20 01:09:35;;;;;;;;;;;;;;;1.02;100.00;95496.16;1022868;28;19919;-71
2022/04/20 01:10:06;;;;;;;;;;;;;;;1.03;100.00;95487.41;1022865;29;19921;-70
2022/04/20 01:10:36;;;;;;;;;;;;;;;1.03;100.00;95492.56;1017467;28;19919;-69
2022/04/20 01:11:08;;;;;;;;;;;;;;;1.02;100.00;95493.59;1020040;29;19918;-71
2022/04/20 01:11:38;;;;;;;;;;;;;;;1.01;100.00;95485.03;1019082;29;19915;-70
2022/04/20 01:12:09;;;;;;;;;;;;;;;1.02;100.00;95486.63;1019025;28;20695;-71
2022/04/20 01:12:40;;;;;;;;;;;;;;;1.03;100.00;95490.78;1015178;29;19932;-70
2022/04/20 01:13:11;;;;;;;;;;;;;;;1.00;100.00;95490.41;1015591;29;19920;-71
2022/04/20 01:13:41;;;;;;;;;;;;;;;0.99;100.00;95486.25;1018919;29;19925;-71
2022/04/20 01:14:11;;;;;;;;;;;;;;;0.99;100.00;95487.03;1019181;28;19962;-71
2022/04/20 01:14:42;;;;;;;;;;;;;;;0.99;100.00;95491.41;1023010;28;20365;-70
2022/04/20 01:15:12;;;;;;;;;;;;;;;0.97;100.00;95491.59;1022872;29;19921;-71
2022/04/20 01:15:48;;;;;;;;;;;;;;;0.96;100.00;95489.25;1019306;29;20050;-71
2022/04/20 01:16:18;;;;;;;;;;;;;;;0.99;100.00;95486.25;1022718;29;20385;-70
2022/04/20 01:16:48;;;;;;;;;;;;;;;0.97;100.00;95483.84;1014369;29;19919;-71
2022/04/20 01:17:19;;;;;;;;;;;;;;;0.96;100.00;95486.66;1015067;29;19915;-70
2022/04/20 01:17:49;;;;;;;;;;;;;;;0.96;100.00;95487.44;1011195;29;20546;-70
2022/04/20 01:18:22;;;;;;;;;;;;;;;0.94;100.00;95492.03;1007042;29;19924;-70
2022/04/20 01:18:53;;;;;;;;;;;;;;;0.95;100.00;95496.19;1012052;29;20267;-71
2022/04/20 01:19:30;;;;;;;;;;;;;;;0.93;100.00;95493.03;1019522;28;19971;-70
2022/04/20 01:20:02;;;;;;;;;;;;;;;0.93;100.00;95485.28;1022859;28;19911;-70
2022/04/20 01:20:33;;;;;;;;;;;;;;;0.96;100.00;95486.66;1022647;29;19919;-70
2022/04/20 01:21:05;;;;;;;;;;;;;;;0.95;100.00;95485.88;1025805;28;19915;-70
2022/04/20 01:21:35;;;;;;;;;;;;;;;0.97;100.00;95486.44;1028008;28;19925;-71
2022/04/20 01:22:08;;;;;;;;;;;;;;;0.99;100.00;95489.63;1034799;28;19929;-70
2022/04/20 01:22:39;;;;;;;;;;;;;;;1.00;100.00;95492.97;1020321;28;19937;-70
2022/04/20 01:23:12;;;;;;;;;;;;;;;0.98;100.00;95488.03;1014846;29;19926;-71
2022/04/20 01:23:42;;;;;;;;;;;;;;;0.99;100.00;95487.03;1014751;29;19926;-70
2022/04/20 01:24:12;;;;;;;;;;;;;;;0.97;100.00;95483.84;1015957;28;19926;-70
2022/04/20 01:24:43;;;;;;;;;;;;;;;0.96;100.00;95492.59;1027124;28;20320;-70
2022/04/20 01:25:14;;;;;;;;;;;;;;;0.95;100.00;95485.88;1031129;28;19957;-70
2022/04/20 01:25:44;;;;;;;;;;;;;;;0.96;100.00;95481.50;1030622;28;19925;-70
2022/04/20 01:26:14;;;;;;;;;;;;;;;0.97;100.00;95478.69;1030278;28;19921;-70
2022/04/20 01:26:47;;;;;;;;;;;;;;;0.93;100.00;95477.53;1026382;28;19914;-70
2022/04/20 01:27:18;;;;;;;;;;;;;;;0.97;100.00;95478.69;1026520;28;20009;-69
2022/04/20 01:27:48;;;;;;;;;;;;;;;0.99;100.00;95483.66;1026325;28;19914;-71
2022/04/20 01:28:18;;;;;;;;;;;;;;;0.97;100.00;95473.53;1027388;28;19945;-70
2022/04/20 01:28:49;;;;;;;;;;;;;;;0.96;100.00;95477.13;1022870;28;19921;-70
2022/04/20 01:29:19;;;;;;;;;;;;;;;0.99;100.00;95475.91;1025775;28;19964;-71
2022/04/20 01:29:49;;;;;;;;;;;;;;;0.97;100.00;95483.84;1027028;28;19930;-71
2022/04/20 01:30:19;;;;;;;;;;;;;;;0.98;100.00;95479.50;1022776;28;19925;-70
2022/04/20 01:30:50;;;;;;;;;;;;;;;0.98;100.00;95482.09;1027331;28;19922;-71
2022/04/20 01:31:20;;;;;;;;;;;;;;;0.99;100.00;95481.88;1022628;28;19960;-70
2022/04/20 01:31:51;;;;;;;;;;;;;;;0.98;100.00;95482.88;1019021;29;20008;-71
2022/04/20 01:32:21;;;;;;;;;;;;;;;0.95;100.00;95478.13;1019094;29;19915;-70
2022/04/20 01:32:51;;;;;;;;;;;;;;;0.94;100.00;95489.47;1018742;28;19915;-70
2022/04/20 01:33:24;;;;;;;;;;;;;;;0.95;100.00;95485.88;1019670;28;20571;-71
2022/04/20 01:33:54;;;;;;;;;;;;;;;0.94;100.00;95484.28;1026495;28;19982;-70
2022/04/20 01:34:25;;;;;;;;;;;;;;;0.92;100.00;95484.50;1026529;28;19992;-70
2022/04/20 01:34:55;;;;;;;;;;;;;;;0.94;100.00;95486.88;1023044;29;20304;-70
2022/04/20 01:35:25;;;;;;;;;;;;;;;0.93;100.00;95493.03;1022639;28;19915;-70
2022/04/20 01:35:56;;;;;;;;;;;;;;;0.92;100.00;95487.06;1022725;29;19926;-70
2022/04/20 01:36:29;;;;;;;;;;;;;;;0.95;100.00;95491.03;1018928;28;20002;-70
2022/04/20 01:36:59;;;;;;;;;;;;;;;0.91;100.00;95480.31;1018060;29;20394;-69
2022/04/20 01:37:30;;;;;;;;;;;;;;;0.90;100.00;95489.06;1019496;29;20308;-70
2022/04/20 01:38:00;;;;;;;;;;;;;;;0.91;100.00;95484.72;1025575;28;19925;-70
2022/04/20 01:38:31;;;;;;;;;;;;;;;0.55;100.00;95429.28;1026834;28;19910;-70
2022/04/20 01:39:01;;;;;;;;;;;;;;;0.88;100.00;95485.91;1026854;28;19907;-70
2022/04/20 01:39:31;;;;;;;;;;;;;;;0.90;100.00;95477.94;1028256;28;19936;-70
2022/04/20 01:40:02;;;;;;;;;;;;;;;0.90;100.00;95483.91;1022873;29;19914;-70
2022/04/20 01:40:33;;;;;;;;;;;;;;;0.87;100.00;95483.53;1023208;28;20412;-71
2022/04/20 01:41:03;;;;;;;;;;;;;;;0.88;100.00;95478.16;1022460;28;19914;-70
2022/04/20 01:41:33;;;;;;;;;;;;;;;0.88;100.00;95487.69;1022948;28;19918;-70
2022/04/20 01:42:04;;;;;;;;;;;;;;;0.85;100.00;95480.38;1022845;28;20459;-70
2022/04/20 01:42:34;;;;;;;;;;;;;;;0.84;100.00;95483.94;1022891;29;20304;-70
2022/04/20 01:43:05;;;;;;;;;;;;;;;0.83;100.00;95483.16;1018847;28;20819;-71
2022/04/20 01:43:35;;;;;;;;;;;;;;;0.81;100.00;95485.16;1019067;29;19910;-71
2022/04/20 01:44:06;;;;;;;;;;;;;;;0.81;100.00;95481.78;1018902;29;20599;-69
2022/04/20 01:44:36;;;;;;;;;;;;;;;0.67;100.00;95473.28;1019149;28;19915;-71
2022/04/20 01:45:07;;;;;;;;;;;;;;;0.80;100.00;95482.78;1018702;28;19922;-70
2022/04/20 01:45:37;;;;;;;;;;;;;;;0.79;100.00;95486.34;1019102;29;19915;-70
2022/04/20 01:46:07;;;;;;;;;;;;;;;0.75;100.00;95490.34;1023236;29;20020;-69
2022/04/20 01:46:39;;;;;;;;;;;;;;;0.73;100.00;95487.19;1022465;28;20558;-70
2022/04/20 01:47:09;;;;;;;;;;;;;;;0.69;100.00;95492.75;1022291;28;19918;-70
2022/04/20 01:47:39;;;;;;;;;;;;;;;0.66;100.00;95489.78;1022930;28;19915;-70
2022/04/20 01:48:12;;;;;;;;;;;;;;;0.62;100.00;95492.00;1022729;28;19918;-70
2022/04/20 01:48:46;;;;;;;;;;;;;;;0.60;100.00;95488.81;1019545;29;19921;-70
2022/04/20 01:49:25;;;;;;;;;;;;;;;0.64;100.00;95492.59;1023346;28;20005;-70
2022/04/20 01:49:55;;;;;;;;;;;;;;;0.62;100.00;95492.00;1024878;28;19918;-70
2022/04/20 01:50:26;;;;;;;;;;;;;;;0.66;100.00;95495.75;1028673;28;20384;-70
2022/04/20 01:51:47;;;;;;;;;;;;;;;0.34;100.00;95439.94;1026464;28;19953;-70
2022/04/20 01:52:17;;;;;;;;;;;;;;;0.69;100.00;95486.81;1029460;28;19922;-70
2022/04/20 01:52:48;;;;;;;;;;;;;;;0.73;100.00;95487.97;1029970;28;20017;-70
2022/04/20 01:53:19;;;;;;;;;;;;;;;0.73;100.00;95492.34;1026476;28;20001;-70
2022/04/20 01:53:49;;;;;;;;;;;;;;;0.70;100.00;95484.03;1023568;29;19917;-70
2022/04/20 01:54:19;;;;;;;;;;;;;;;0.70;100.00;95486.63;1022964;28;20416;-69
2022/04/20 01:55:56;;;;;;;;;;;;;;;0.72;100.00;95480.44;1025056;28;19941;-70
2022/04/20 01:56:07;;;;;;;;;;;;;;;0.70;100.00;95478.88;1021889;28;19914;-70
2022/04/20 01:56:37;;;;;;;;;;;;;;;0.69;100.00;95486.81;1027653;28;19910;-71
2022/04/20 01:57:08;;;;;;;;;;;;;;;0.72;100.00;95485.59;1022525;29;20419;-70
2022/04/20 01:57:38;;;;;;;;;;;;;;;0.69;100.00;95484.22;1019227;29;19915;-68
2022/04/20 01:58:41;;;;;;;;;;;;;;;0.68;100.00;95487.81;1019788;29;19907;-70
2022/04/20 01:59:25;;;;;;;;;;;;;;;0.66;100.00;95488.00;1027695;28;19929;-70
2022/04/20 01:59:59;;;;;;;;;;;;;;;0.65;100.00;95483.84;1029622;28;20724;-70
2022/04/20 02:00:32;;;;;;;;;;;;;;;0.64;100.00;95482.28;1027517;28;19965;-70
2022/04/20 02:02:34;;;;;;;;;;;;;;;0.65;100.00;95481.25;1019730;29;19923;-70
2022/04/20 02:02:45;;;;;;;;;;;;;;;0.62;100.00;95479.09;1021054;29;19998;-70
2022/04/20 02:03:17;;;;;;;;;;;;;;;0.63;100.00;95480.66;1020810;28;19922;-69
2022/04/20 02:03:48;;;;;;;;;;;;;;;0.62;100.00;95486.84;1022459;29;20292;-69
2022/04/20 02:04:19;;;;;;;;;;;;;;;0.62;100.00;95473.94;1019640;29;19914;-68
2022/04/20 02:04:50;;;;;;;;;;;;;;;0.58;100.00;95472.75;1016330;29;19947;-70
2022/04/20 02:05:21;;;;;;;;;;;;;;;0.58;100.00;95475.34;1023195;28;20013;-70
2022/04/20 02:05:51;;;;;;;;;;;;;;;0.55;100.00;95475.75;1015528;29;19919;-70
2022/04/20 02:06:22;;;;;;;;;;;;;;;0.55;100.00;95468.00;1016050;29;20377;-69
2022/04/20 02:06:52;;;;;;;;;;;;;;;0.56;100.00;95472.16;1014975;29;19919;-70
2022/04/20 02:07:23;;;;;;;;;;;;;;;0.57;100.00;95467.78;1015605;29;19984;-70
2022/04/20 02:07:53;;;;;;;;;;;;;;;0.55;100.00;95464.63;1016066;29;19915;-70
2022/04/20 02:08:23;;;;;;;;;;;;;;;0.56;100.00;95466.22;1019575;29;19953;-70
2022/04/20 02:08:54;;;;;;;;;;;;;;;0.56;100.00;95467.00;1023623;28;20330;-70
2022/04/20 02:09:26;;;;;;;;;;;;;;;0.59;100.00;95466.59;1027796;28;19925;-70
2022/04/20 02:09:56;;;;;;;;;;;;;;;0.59;100.00;95473.56;1022726;28;20258;-70
2022/04/20 02:10:26;;;;;;;;;;;;;;;0.59;100.00;95469.19;1027631;28;19956;-70
2022/04/20 02:10:57;;;;;;;;;;;;;;;0.59;100.00;95464.00;1026934;28;19918;-70
2022/04/20 02:11:27;;;;;;;;;;;;;;;0.59;100.00;95476.91;1019536;29;19915;-70
2022/04/20 02:11:57;;;;;;;;;;;;;;;0.58;100.00;95467.59;1019132;29;19942;-70
2022/04/20 02:12:27;;;;;;;;;;;;;;;0.59;100.00;95470.97;1014474;29;19922;-70
2022/04/20 02:12:58;;;;;;;;;;;;;;;0.58;100.00;95472.75;1015514;29;19939;-68
2022/04/20 02:13:28;;;;;;;;;;;;;;;0.61;100.00;95467.19;1016142;29;19915;-70
2022/04/20 02:13:59;;;;;;;;;;;;;;;0.59;100.00;95470.97;1015481;29;19951;-69
2022/04/20 02:14:33;;;;;;;;;;;;;;;0.60;100.00;95472.53;1019926;29;19937;-70
2022/04/20 02:15:03;;;;;;;;;;;;;;;0.59;100.00;95468.38;1027556;28;20587;-70
2022/04/20 02:15:33;;;;;;;;;;;;;;;0.59;100.00;95465.81;1028063;28;19914;-70
2022/04/20 02:16:04;;;;;;;;;;;;;;;0.58;100.00;95467.59;1031941;28;19952;-70
2022/04/20 02:16:34;;;;;;;;;;;;;;;0.56;100.00;95467.00;1031565;28;19914;-70
2022/04/20 02:17:05;;;;;;;;;;;;;;;0.55;100.00;95460.25;1026931;28;20370;-70
2022/04/20 02:17:35;;;;;;;;;;;;;;;0.55;100.00;95465.44;1023921;28;19952;-70
2022/04/20 02:18:09;;;;;;;;;;;;;;;0.54;100.00;95463.84;1019741;29;20337;-70
2022/04/20 02:18:39;;;;;;;;;;;;;;;0.52;100.00;95455.50;1020189;29;19922;-70
2022/04/20 02:19:09;;;;;;;;;;;;;;;0.52;100.00;95455.50;1022593;28;19919;-69
2022/04/20 02:19:41;;;;;;;;;;;;;;;0.52;100.00;95459.88;1024889;29;19946;-70
2022/04/20 02:20:11;;;;;;;;;;;;;;;0.52;100.00;95465.06;1021898;29;19950;-70
2022/04/20 02:20:41;;;;;;;;;;;;;;;0.51;100.00;95461.69;1025259;28;19978;-70
2022/04/20 02:21:12;;;;;;;;;;;;;;;0.52;100.00;95462.47;1029220;28;19952;-70
2022/04/20 02:21:42;;;;;;;;;;;;;;;0.50;100.00;95460.06;1025154;28;19919;-70
2022/04/20 02:22:12;;;;;;;;;;;;;;;0.51;100.00;95463.47;1027555;28;19915;-70
2022/04/20 02:22:43;;;;;;;;;;;;;;;0.47;100.00;95463.09;1030507;28;19968;-70
2022/04/20 02:23:13;;;;;;;;;;;;;;;0.48;100.00;95464.66;1027431;28;19921;-70
2022/04/20 02:23:43;;;;;;;;;;;;;;;0.46;100.00;95464.06;1027507;28;19918;-70
2022/04/20 02:24:16;;;;;;;;;;;;;;;0.47;100.00;95468.25;1026254;28;19923;-71
2022/04/20 02:24:47;;;;;;;;;;;;;;;0.45;100.00;95462.50;1023666;28;19921;-70
2022/04/20 02:25:17;;;;;;;;;;;;;;;0.45;100.00;95473.59;1027667;28;19928;-70
2022/04/20 02:25:47;;;;;;;;;;;;;;;0.44;100.00;95466.88;1027816;28;19922;-70
2022/04/20 02:26:17;;;;;;;;;;;;;;;0.43;100.00;95464.47;1027476;28;19922;-70
2022/04/20 02:26:48;;;;;;;;;;;;;;;0.40;100.00;95472.63;1023053;28;20383;-70
2022/04/20 02:27:18;;;;;;;;;;;;;;;0.39;100.00;95468.47;1023339;28;19921;-66
2022/04/20 02:27:48;;;;;;;;;;;;;;;0.36;100.00;95468.88;1023405;29;20313;-70
2022/04/20 02:28:19;;;;;;;;;;;;;;;0.34;100.00;95473.47;1023881;28;20466;-70
2022/04/20 02:28:49;;;;;;;;;;;;;;;0.32;100.00;95473.66;1031445;28;19925;-70
2022/04/20 02:29:19;;;;;;;;;;;;;;;0.34;100.00;95476.06;1031412;28;20415;-70
2022/04/20 02:29:50;;;;;;;;;;;;;;;0.32;100.00;95476.25;1031815;28;19956;-70
2022/04/20 02:30:20;;;;;;;;;;;;;;;0.29;100.00;95475.88;1027377;28;19973;-70
2022/04/20 02:30:50;;;;;;;;;;;;;;;0.29;100.00;95475.88;1023724;29;19997;-70
2022/04/20 02:31:20;;;;;;;;;;;;;;;0.26;100.00;95466.72;1027165;28;20363;-70
2022/04/20 02:31:51;;;;;;;;;;;;;;;0.26;100.00;95468.53;1019543;29;19918;-70
2022/04/20 02:32:24;;;;;;;;;;;;;;;0.29;100.00;95475.88;1015846;29;20427;-70
2022/04/20 02:32:54;;;;;;;;;;;;;;;0.26;100.00;95471.09;1019347;29;19933;-70
2022/04/20 02:33:24;;;;;;;;;;;;;;;0.26;100.00;95476.28;1020097;28;19922;-69
2022/04/20 02:33:55;;;;;;;;;;;;;;;0.22;100.00;95478.47;1024308;28;19915;-70
2022/04/20 02:34:26;;;;;;;;;;;;;;;0.19;100.00;95474.50;1027716;28;20030;-71
2022/04/20 02:34:56;;;;;;;;;;;;;;;0.19;100.00;95476.28;1027732;28;20364;-70
2022/04/20 02:35:27;;;;;;;;;;;;;;;0.18;100.00;95475.50;1023377;28;19915;-70
2022/04/20 02:35:57;;;;;;;;;;;;;;;0.22;100.00;95475.88;1027175;28;19914;-70
2022/04/20 02:36:27;;;;;;;;;;;;;;;0.23;100.00;95483.44;1023735;28;19907;-70
2022/04/20 02:36:58;;;;;;;;;;;;;;;0.19;100.00;95481.44;1018968;28;19907;-68
2022/04/20 02:37:29;;;;;;;;;;;;;;;0.18;100.00;95480.66;1023416;29;20455;-70
2022/04/20 02:38:00;;;;;;;;;;;;;;;0.16;100.00;95482.66;1023879;28;19946;-70
2022/04/20 02:38:30;;;;;;;;;;;;;;;0.18;100.00;95480.66;1023760;28;19906;-70
2022/04/20 02:39:03;;;;;;;;;;;;;;;0.19;100.00;95487.41;1023873;28;20448;-70
2022/04/20 02:39:35;;;;;;;;;;;;;;;0.22;100.00;95486.22;1027309;28;19906;-70
2022/04/20 02:40:06;;;;;;;;;;;;;;;0.23;100.00;95486.03;1027435;28;19910;-70
2022/04/20 02:40:37;;;;;;;;;;;;;;;0.26;100.00;95481.44;1019805;29;20325;-70
2022/04/20 02:41:07;;;;;;;;;;;;;;;0.25;100.00;95485.00;1016126;29;19951;-70
2022/04/20 02:41:37;;;;;;;;;;;;;;;0.25;100.00;95479.84;1019255;29;19911;-71
2022/04/20 02:42:08;;;;;;;;;;;;;;;0.25;100.00;95480.63;1012293;29;19950;-70
2022/04/20 02:42:38;;;;;;;;;;;;;;;0.21;100.00;95476.88;1015462;29;19911;-69
2022/04/20 02:43:12;;;;;;;;;;;;;;;0.23;100.00;95487.78;1018751;29;20293;-70
2022/04/20 02:43:42;;;;;;;;;;;;;;;0.22;100.00;95478.47;1019773;29;20305;-69